Time;durP1;ratioP1;P1;durP2;ratioP2;P2;SDS_P1;SDS_P2;PMS_P1;PMS_P2;Temp;Humidity;BMP_temperature;BMP_pressure;BME280_temperature;BME280_humidity;BME280_pressure;Samples;Min_cycle;Max_cycle;Signal;HPM_P1;HPM_P2
2021/12/03 00:01:04;;;;;;;27.23;16.98;;;1.30;83.50;;;;;;5083982;28;20036;-64
2021/12/03 00:03:30;;;;;;;26.10;17.10;;;1.30;83.50;;;;;;5084539;28;20036;-64
2021/12/03 00:05:57;;;;;;;30.08;17.25;;;1.30;83.50;;;;;;5076724;28;20107;-64
2021/12/03 00:08:25;;;;;;;29.50;17.10;;;1.30;83.60;;;;;;5083766;28;20024;-64
2021/12/03 00:10:56;;;;;;;28.73;18.58;;;1.30;83.50;;;;;;5078230;28;20380;-64
2021/12/03 00:13:23;;;;;;;30.65;18.73;;;1.20;83.30;;;;;;5080203;28;20058;-64
2021/12/03 00:15:50;;;;;;;32.67;19.75;;;1.20;83.50;;;;;;5081246;28;20037;-64
2021/12/03 00:18:16;;;;;;;42.10;22.70;;;1.10;83.50;;;;;;5078437;28;20054;-64
2021/12/03 00:20:42;;;;;;;42.83;22.25;;;1.10;83.70;;;;;;5074260;28;20498;-64
2021/12/03 00:23:08;;;;;;;37.33;21.08;;;1.10;83.80;;;;;;5091501;28;20152;-64
2021/12/03 00:25:35;;;;;;;33.63;20.00;;;1.10;83.80;;;;;;5082555;28;20118;-64
2021/12/03 00:28:02;;;;;;;31.00;18.55;;;1.10;84.10;;;;;;5089472;28;20024;-64
2021/12/03 00:30:28;;;;;;;29.40;18.10;;;1.10;84.10;;;;;;5086414;28;20025;-64
2021/12/03 00:32:54;;;;;;;33.55;18.67;;;1.20;84.30;;;;;;5083075;28;20158;-64
2021/12/03 00:35:20;;;;;;;28.92;18.08;;;1.20;84.60;;;;;;5079325;28;20099;-64
2021/12/03 00:37:47;;;;;;;37.13;19.73;;;1.30;84.80;;;;;;5092253;28;20027;-64
2021/12/03 00:40:20;;;;;;;38.00;22.08;;;1.30;84.70;;;;;;5089107;28;20024;-64
2021/12/03 00:42:46;;;;;;;38.78;23.02;;;1.40;84.60;;;;;;5085768;28;20487;-64
2021/12/03 00:45:13;;;;;;;34.30;22.05;;;1.50;84.40;;;;;;5087828;28;20044;-64
2021/12/03 00:47:41;;;;;;;40.25;24.17;;;1.60;84.20;;;;;;5073618;28;20098;-64
2021/12/03 00:50:09;;;;;;;42.67;25.08;;;1.60;84.00;;;;;;5089338;28;20024;-64
2021/12/03 00:52:36;;;;;;;38.70;23.98;;;1.70;84.00;;;;;;5086578;28;20399;-64
2021/12/03 00:55:04;;;;;;;40.40;24.98;;;1.70;83.90;;;;;;5084390;28;20024;-64
2021/12/03 00:57:29;;;;;;;39.38;24.70;;;1.70;83.70;;;;;;5086175;28;20025;-64
2021/12/03 00:59:55;;;;;;;37.40;23.15;;;1.80;83.80;;;;;;5075605;28;20017;-64
2021/12/03 01:02:21;;;;;;;38.35;23.75;;;1.80;83.80;;;;;;5079354;28;20103;-64
2021/12/03 01:04:47;;;;;;;39.38;24.17;;;1.90;83.90;;;;;;5090012;28;20027;-64
2021/12/03 01:07:13;;;;;;;40.03;24.92;;;1.90;83.80;;;;;;5080413;28;20099;-64
2021/12/03 01:09:39;;;;;;;43.90;24.70;;;1.90;83.80;;;;;;5077222;28;20099;-64
2021/12/03 01:12:05;;;;;;;38.38;24.85;;;1.90;83.80;;;;;;5076777;28;20107;-64
2021/12/03 01:14:31;;;;;;;44.45;27.65;;;2.00;83.80;;;;;;5090026;28;20703;-64
2021/12/03 01:16:57;;;;;;;46.38;27.60;;;2.00;83.80;;;;;;5076840;28;20480;-64
2021/12/03 01:19:25;;;;;;;44.42;28.92;;;2.00;83.80;;;;;;5077110;28;20028;-64
2021/12/03 01:21:51;;;;;;;40.08;25.45;;;2.00;83.70;;;;;;5078781;28;20494;-64
2021/12/03 01:24:17;;;;;;;42.58;27.40;;;2.10;83.70;;;;;;5087660;28;20031;-64
2021/12/03 01:26:45;;;;;;;38.15;23.70;;;2.10;83.70;;;;;;5073272;28;20024;-64
2021/12/03 01:29:11;;;;;;;37.63;23.60;;;2.10;83.70;;;;;;5077198;28;20027;-64
2021/12/03 01:31:37;;;;;;;43.95;25.23;;;2.10;83.80;;;;;;5079039;28;20020;-64
2021/12/03 01:34:03;;;;;;;43.15;27.45;;;2.20;84.00;;;;;;5084801;28;20051;-64
2021/12/03 01:36:29;;;;;;;44.28;26.27;;;2.20;83.80;;;;;;5085948;28;20036;-64
2021/12/03 01:38:55;;;;;;;42.25;25.55;;;2.10;83.70;;;;;;5075633;28;20020;-64
2021/12/03 01:41:21;;;;;;;44.83;27.75;;;2.20;83.90;;;;;;5088038;28;20024;-64
2021/12/03 01:43:47;;;;;;;43.65;26.20;;;2.20;83.90;;;;;;5089332;28;20031;-64
2021/12/03 01:46:16;;;;;;;42.78;26.15;;;2.20;83.90;;;;;;5087461;28;20090;-64
2021/12/03 01:48:42;;;;;;;40.72;25.90;;;2.20;84.00;;;;;;5087588;28;20024;-64
2021/12/03 01:51:08;;;;;;;38.45;25.77;;;2.30;85.00;;;;;;5087181;28;20047;-64
2021/12/03 01:53:37;;;;;;;46.35;28.05;;;2.30;84.60;;;;;;5086070;28;20476;-64
2021/12/03 01:56:07;;;;;;;51.55;30.27;;;2.40;84.30;;;;;;5091250;28;20035;-64
2021/12/03 01:58:33;;;;;;;48.03;29.17;;;2.40;84.20;;;;;;5086481;28;20479;-64
2021/12/03 02:01:09;;;;;;;49.45;29.33;;;2.50;84.20;;;;;;5081474;28;20039;-64
2021/12/03 02:03:37;;;;;;;46.95;28.63;;;2.50;85.00;;;;;;5079457;28;20024;-64
2021/12/03 02:06:06;;;;;;;46.67;27.58;;;2.50;84.20;;;;;;5075237;28;20028;-64
2021/12/03 02:08:32;;;;;;;43.55;28.73;;;2.50;84.20;;;;;;5072505;28;20841;-64
2021/12/03 02:10:58;;;;;;;41.58;27.67;;;2.50;84.20;;;;;;5086117;28;20035;-64
2021/12/03 02:13:24;;;;;;;44.65;28.27;;;2.50;84.20;;;;;;5086955;28;20024;-64
2021/12/03 02:15:50;;;;;;;50.22;27.92;;;2.50;84.30;;;;;;5083923;28;20068;-64
2021/12/03 02:18:17;;;;;;;39.65;25.80;;;2.50;84.30;;;;;;5086947;28;20024;-64
2021/12/03 02:20:47;;;;;;;44.30;25.70;;;2.60;84.30;;;;;;5071886;28;20437;-64
2021/12/03 02:23:15;;;;;;;40.60;25.38;;;2.60;84.40;;;;;;5085173;28;20124;-64
2021/12/03 02:25:41;;;;;;;39.15;23.83;;;2.60;84.40;;;;;;5076566;28;20463;-64
2021/12/03 02:28:07;;;;;;;33.53;22.25;;;2.60;84.30;;;;;;5076201;28;20025;-64
2021/12/03 02:30:33;;;;;;;34.40;21.83;;;2.60;84.40;;;;;;5075851;28;20116;-64
2021/12/03 02:32:59;;;;;;;41.28;24.88;;;2.70;84.60;;;;;;5077060;28;20092;-64
2021/12/03 02:35:25;;;;;;;35.83;23.45;;;2.70;84.50;;;;;;5073030;28;20029;-64
2021/12/03 02:37:51;;;;;;;39.15;24.13;;;2.70;84.50;;;;;;5088733;28;20016;-64
2021/12/03 02:40:18;;;;;;;35.78;22.60;;;2.70;84.50;;;;;;5078103;28;20031;-64
2021/12/03 02:42:45;;;;;;;40.63;23.13;;;2.70;85.40;;;;;;5079980;28;20016;-64
2021/12/03 02:45:12;;;;;;;32.45;21.13;;;2.80;84.60;;;;;;5087319;28;20398;-64
2021/12/03 02:47:39;;;;;;;31.75;20.63;;;2.80;84.60;;;;;;5078821;28;20031;-64
2021/12/03 02:50:07;;;;;;;34.55;21.15;;;2.80;84.70;;;;;;5086723;28;20028;-64
2021/12/03 02:52:34;;;;;;;33.83;21.55;;;2.80;84.80;;;;;;5081283;28;20028;-64
2021/12/03 02:55:00;;;;;;;30.65;19.45;;;2.90;84.70;;;;;;5084516;28;20035;-64
2021/12/03 02:57:26;;;;;;;28.27;19.38;;;2.90;84.70;;;;;;5084582;28;20035;-64
2021/12/03 02:59:52;;;;;;;32.53;20.35;;;2.90;84.70;;;;;;5072951;28;20033;-64
2021/12/03 03:02:18;;;;;;;19.38;12.77;;;3.00;84.80;;;;;;5091313;28;20106;-64
2021/12/03 03:04:44;;;;;;;19.30;11.55;;;3.00;85.00;;;;;;5092378;28;20084;-64
2021/12/03 03:07:10;;;;;;;16.85;9.70;;;3.00;85.80;;;;;;5083378;28;20095;-64
2021/12/03 03:09:36;;;;;;;19.60;10.45;;;3.00;86.40;;;;;;5082606;28;20088;-64
2021/12/03 03:12:01;;;;;;;18.13;8.57;;;3.10;86.30;;;;;;5090373;28;20020;-64
2021/12/03 03:14:28;;;;;;;19.90;11.25;;;3.10;86.70;;;;;;5092849;28;20028;-64
2021/12/03 03:16:54;;;;;;;24.77;13.57;;;3.10;86.80;;;;;;5078976;28;20044;-64
2021/12/03 03:19:22;;;;;;;18.60;11.63;;;3.10;86.40;;;;;;5079634;28;20017;-64
2021/12/03 03:21:49;;;;;;;19.13;10.82;;;3.10;86.30;;;;;;5085259;28;20023;-64
2021/12/03 03:24:17;;;;;;;19.55;11.25;;;3.10;86.30;;;;;;5090199;28;20024;-64
2021/12/03 03:26:45;;;;;;;18.27;10.20;;;3.10;86.40;;;;;;5075158;28;20027;-64
2021/12/03 03:29:15;;;;;;;19.88;10.43;;;3.20;86.50;;;;;;5077765;28;20029;-64
2021/12/03 03:31:41;;;;;;;17.70;10.43;;;3.20;86.40;;;;;;5086679;28;20062;-64
2021/12/03 03:34:08;;;;;;;20.58;12.13;;;3.20;86.30;;;;;;5089877;28;20024;-64
2021/12/03 03:36:37;;;;;;;23.33;16.08;;;3.30;86.40;;;;;;5087312;28;20127;-64
2021/12/03 03:39:05;;;;;;;22.08;13.23;;;3.30;86.30;;;;;;5077772;28;20099;-64
2021/12/03 03:41:32;;;;;;;16.63;10.60;;;3.40;86.20;;;;;;5075191;28;20024;-64
2021/12/03 03:43:58;;;;;;;16.75;10.43;;;3.40;86.20;;;;;;5087783;28;20024;-64
2021/12/03 03:46:24;;;;;;;15.25;9.63;;;3.40;86.20;;;;;;5080313;28;20052;-64
2021/12/03 03:48:49;;;;;;;18.73;10.00;;;3.50;86.20;;;;;;5078687;28;20029;-64
2021/12/03 03:51:16;;;;;;;15.07;9.02;;;3.50;86.50;;;;;;5078838;28;20016;-64
2021/12/03 03:53:42;;;;;;;17.77;8.85;;;3.50;86.50;;;;;;5079310;28;20030;-64
2021/12/03 03:56:08;;;;;;;15.68;9.23;;;3.40;87.20;;;;;;5077670;28;20039;-64
2021/12/03 03:58:37;;;;;;;11.73;5.70;;;3.50;87.80;;;;;;5079380;28;20039;-64
2021/12/03 04:01:07;;;;;;;14.57;8.98;;;3.50;88.80;;;;;;5084148;28;20024;-64
2021/12/03 04:03:33;;;;;;;16.75;9.75;;;3.50;89.00;;;;;;5089969;28;20080;-64
2021/12/03 04:05:59;;;;;;;17.98;8.30;;;3.50;88.60;;;;;;5090040;28;20024;-64
2021/12/03 04:08:28;;;;;;;11.15;7.50;;;3.50;88.80;;;;;;5092194;28;20016;-64
2021/12/03 04:10:55;;;;;;;15.60;8.32;;;3.60;89.50;;;;;;5078018;28;20044;-64
2021/12/03 04:13:21;;;;;;;17.77;8.85;;;3.60;89.30;;;;;;5080815;28;20031;-64
2021/12/03 04:15:48;;;;;;;16.10;8.82;;;3.60;89.10;;;;;;5088262;28;20036;-64
2021/12/03 04:18:14;;;;;;;15.77;9.30;;;3.70;89.00;;;;;;5089210;28;20168;-64
2021/12/03 04:20:40;;;;;;;17.58;9.40;;;3.70;88.80;;;;;;5084043;28;20103;-64
2021/12/03 04:23:06;;;;;;;15.65;9.93;;;3.70;88.60;;;;;;5088988;28;20689;-64
2021/12/03 04:25:34;;;;;;;16.50;9.13;;;3.70;88.40;;;;;;5089491;28;20032;-64
2021/12/03 04:28:00;;;;;;;14.95;9.25;;;3.70;88.40;;;;;;5083833;28;20028;-64
2021/12/03 04:30:28;;;;;;;14.88;8.77;;;3.80;88.40;;;;;;5087760;28;20016;-64
2021/12/03 04:32:55;;;;;;;16.15;9.52;;;3.80;88.30;;;;;;5075919;28;20028;-64
2021/12/03 04:35:23;;;;;;;15.75;9.70;;;3.80;88.40;;;;;;5091794;28;20024;-64
2021/12/03 04:37:49;;;;;;;17.35;10.23;;;3.80;88.40;;;;;;5077896;28;20104;-64
2021/12/03 04:40:17;;;;;;;13.88;9.10;;;3.80;88.30;;;;;;5079465;28;20155;-64
2021/12/03 04:42:44;;;;;;;14.73;9.20;;;3.80;88.20;;;;;;5088968;28;20020;-64
2021/12/03 04:45:12;;;;;;;16.63;8.93;;;3.80;88.30;;;;;;5089031;28;20137;-64
2021/12/03 04:47:39;;;;;;;13.48;8.18;;;3.90;88.90;;;;;;5073809;28;20020;-64
2021/12/03 04:50:08;;;;;;;15.52;8.65;;;3.90;89.10;;;;;;5092590;28;20059;-64
2021/12/03 04:52:34;;;;;;;16.98;8.82;;;3.90;89.30;;;;;;5077914;28;20051;-64
2021/12/03 04:54:59;;;;;;;14.02;8.23;;;3.90;89.70;;;;;;5081618;28;20027;-64
2021/12/03 04:57:25;;;;;;;14.20;9.10;;;3.90;89.50;;;;;;5086779;28;20074;-64
2021/12/03 04:59:51;;;;;;;14.63;8.10;;;3.90;89.40;;;;;;5074906;28;20054;-64
2021/12/03 05:02:19;;;;;;;14.52;7.68;;;3.90;89.50;;;;;;5091136;28;20376;-64
2021/12/03 05:04:47;;;;;;;14.05;6.45;;;4.00;90.20;;;;;;5090286;28;20052;-64
2021/12/03 05:07:28;;;;;;;14.52;7.40;;;4.00;90.50;;;;;;5080624;28;20044;-64
2021/12/03 05:09:54;;;;;;;;;;;4.00;90.60;;;;;;5077791;28;20039;-64
2021/12/03 05:12:20;;;;;;;13.45;7.53;;;4.00;90.70;;;;;;5076838;28;19912;-64
2021/12/03 05:14:45;;;;;;;15.88;7.60;;;4.00;90.70;;;;;;5082023;28;20024;-64
2021/12/03 05:17:11;;;;;;;13.30;6.97;;;4.00;90.90;;;;;;5089471;28;20039;-64
2021/12/03 05:19:37;;;;;;;15.27;7.85;;;4.00;91.00;;;;;;5083781;28;20101;-64
2021/12/03 05:22:03;;;;;;;10.48;5.15;;;4.10;91.20;;;;;;5089423;28;20027;-64
2021/12/03 05:24:29;;;;;;;14.93;7.45;;;4.10;91.40;;;;;;5085790;28;20024;-64
2021/12/03 05:26:55;;;;;;;11.43;6.05;;;4.10;91.50;;;;;;5086883;28;20037;-64
2021/12/03 05:29:21;;;;;;;13.50;5.65;;;4.20;91.50;;;;;;5090924;28;20024;-64
2021/12/03 05:31:47;;;;;;;10.27;4.20;;;4.20;91.60;;;;;;5082845;28;20024;-64
2021/12/03 05:34:15;;;;;;;9.20;5.43;;;4.20;92.10;;;;;;5088129;28;20032;-64
2021/12/03 05:36:41;;;;;;;6.82;4.15;;;4.30;92.30;;;;;;5084110;28;20112;-64
2021/12/03 05:39:07;;;;;;;12.93;5.97;;;4.30;92.50;;;;;;5076020;28;20027;-64
2021/12/03 05:41:35;;;;;;;7.32;3.78;;;4.30;92.70;;;;;;5088144;28;20040;-64
2021/12/03 05:44:03;;;;;;;6.85;3.58;;;4.40;92.80;;;;;;5090639;28;20024;-63
2021/12/03 05:46:29;;;;;;;14.75;6.22;;;4.40;92.70;;;;;;5086694;28;20127;-64
2021/12/03 05:48:54;;;;;;;9.45;5.13;;;4.40;92.70;;;;;;5087477;28;20039;-65
2021/12/03 05:51:20;;;;;;;8.68;4.25;;;4.40;92.70;;;;;;5088648;28;20035;-65
2021/12/03 05:53:46;;;;;;;10.07;5.97;;;4.40;92.70;;;;;;5093646;28;20066;-65
2021/12/03 05:56:12;;;;;;;11.60;6.10;;;4.40;92.70;;;;;;5093668;28;20406;-65
2021/12/03 05:58:40;;;;;;;14.45;5.72;;;4.40;92.70;;;;;;5094257;28;20390;-65
2021/12/03 06:01:06;;;;;;;9.73;5.35;;;4.40;92.60;;;;;;5085675;28;20111;-64
2021/12/03 06:03:32;;;;;;;9.25;4.45;;;4.50;92.50;;;;;;5086969;28;20107;-65
2021/12/03 06:05:57;;;;;;;9.20;5.38;;;4.50;92.40;;;;;;5087392;28;20712;-65
2021/12/03 06:08:23;;;;;;;12.27;6.18;;;4.50;92.40;;;;;;5083657;28;20031;-65
2021/12/03 06:10:49;;;;;;;10.93;4.53;;;4.50;92.40;;;;;;5084750;28;20025;-65
2021/12/03 06:13:15;;;;;;;8.57;3.78;;;4.50;92.40;;;;;;5085187;28;20103;-65
2021/12/03 06:15:41;;;;;;;9.10;5.50;;;4.50;92.40;;;;;;5089070;28;20043;-64
2021/12/03 06:18:07;;;;;;;12.45;5.35;;;4.60;92.40;;;;;;5098115;27;20069;-64
2021/12/03 06:20:32;;;;;;;9.02;4.57;;;4.50;92.50;;;;;;5092314;28;20107;-63
2021/12/03 06:22:59;;;;;;;13.52;5.70;;;4.50;92.50;;;;;;5085672;28;20103;-64
2021/12/03 06:25:25;;;;;;;12.13;5.65;;;4.50;92.40;;;;;;5084851;28;20016;-64
2021/12/03 06:27:54;;;;;;;10.25;4.80;;;4.60;92.50;;;;;;5084911;28;20031;-64
2021/12/03 06:30:21;;;;;;;15.93;6.57;;;4.60;92.50;;;;;;5085964;28;20027;-64
2021/12/03 06:32:47;;;;;;;9.02;4.00;;;4.50;93.00;;;;;;5085987;28;20120;-64
2021/12/03 06:35:14;;;;;;;18.33;7.30;;;4.60;92.60;;;;;;5078738;28;20081;-64
2021/12/03 06:37:41;;;;;;;10.80;5.53;;;4.60;92.60;;;;;;5080512;28;20059;-64
2021/12/03 06:40:12;;;;;;;14.18;6.35;;;4.60;92.60;;;;;;5084704;28;20016;-64
2021/12/03 06:42:37;;;;;;;11.07;6.32;;;4.60;92.70;;;;;;5086987;28;20153;-64
2021/12/03 06:45:05;;;;;;;9.88;4.68;;;4.60;92.80;;;;;;5087122;28;20126;-64
2021/12/03 06:47:33;;;;;;;13.55;6.80;;;4.60;92.90;;;;;;5089632;28;20156;-64
2021/12/03 06:50:01;;;;;;;15.82;7.38;;;4.60;93.00;;;;;;5081905;28;20513;-65
2021/12/03 06:52:28;;;;;;;11.40;5.80;;;4.70;93.10;;;;;;5082759;28;20498;-65
2021/12/03 06:54:59;;;;;;;13.13;6.75;;;4.70;93.20;;;;;;5081396;28;20131;-65
2021/12/03 06:57:25;;;;;;;;;;;4.70;93.20;;;;;;5075817;28;20056;-65
2021/12/03 06:59:51;;;;;;;13.32;6.72;;;4.70;93.20;;;;;;5074800;28;20259;-64
2021/12/03 07:02:17;;;;;;;10.63;5.00;;;4.70;93.30;;;;;;5072583;28;20024;-65
2021/12/03 07:04:44;;;;;;;12.43;6.25;;;4.80;93.40;;;;;;5073163;28;20032;-65
2021/12/03 07:07:10;;;;;;;12.30;6.53;;;4.80;93.40;;;;;;5073972;28;20036;-64
2021/12/03 07:09:36;;;;;;;14.10;6.55;;;4.80;93.40;;;;;;5073917;28;20032;-65
2021/12/03 07:12:03;;;;;;;12.77;5.80;;;4.80;93.50;;;;;;5072045;28;20016;-65
2021/12/03 07:14:28;;;;;;;13.73;7.15;;;4.90;93.50;;;;;;5087123;28;20107;-65
2021/12/03 07:16:54;;;;;;;11.88;6.30;;;4.90;93.50;;;;;;5075224;28;20119;-65
2021/12/03 07:19:20;;;;;;;15.00;8.05;;;4.90;93.60;;;;;;5073854;28;20059;-65
2021/12/03 07:21:46;;;;;;;14.98;7.47;;;5.00;93.60;;;;;;5074156;28;20475;-65
2021/12/03 07:24:12;;;;;;;8.45;4.88;;;5.00;93.60;;;;;;5084226;28;20091;-65
2021/12/03 07:26:37;;;;;;;14.90;7.68;;;5.00;93.70;;;;;;5073764;28;20063;-65
2021/12/03 07:29:04;;;;;;;13.27;7.30;;;5.10;93.80;;;;;;5089627;28;20554;-65
2021/12/03 07:31:30;;;;;;;8.60;4.60;;;5.10;93.80;;;;;;5084983;28;20101;-65
2021/12/03 07:33:56;;;;;;;9.35;4.90;;;5.10;93.80;;;;;;5080382;28;20028;-65
2021/12/03 07:36:22;;;;;;;10.32;5.70;;;5.20;93.90;;;;;;5084966;28;20047;-65
2021/12/03 07:38:48;;;;;;;14.02;7.80;;;5.20;93.90;;;;;;5073236;28;20060;-64
2021/12/03 07:41:14;;;;;;;11.45;6.28;;;5.30;94.00;;;;;;5085459;28;20115;-65
2021/12/03 07:43:40;;;;;;;18.25;7.68;;;5.30;94.00;;;;;;5083249;28;20104;-65
2021/12/03 07:46:06;;;;;;;13.93;6.75;;;5.40;94.10;;;;;;5087537;28;20048;-65
2021/12/03 07:48:32;;;;;;;18.77;7.40;;;5.40;94.10;;;;;;5081818;28;20029;-65
2021/12/03 07:50:58;;;;;;;18.08;8.40;;;5.40;94.20;;;;;;5081939;28;20036;-65
2021/12/03 07:53:25;;;;;;;14.63;6.93;;;5.50;94.20;;;;;;5081464;28;20040;-65
2021/12/03 07:55:52;;;;;;;10.82;6.18;;;5.50;94.30;;;;;;5087158;28;20043;-65
2021/12/03 07:58:18;;;;;;;10.45;5.05;;;5.50;94.30;;;;;;5085951;28;20115;-64
2021/12/03 08:00:46;;;;;;;14.13;7.63;;;5.60;94.30;;;;;;5086046;28;20406;-65
2021/12/03 08:03:13;;;;;;;13.50;7.15;;;5.60;94.30;;;;;;5085741;28;20059;-66
2021/12/03 08:05:39;;;;;;;10.32;6.20;;;5.60;94.30;;;;;;5085957;28;20040;-65
2021/12/03 08:08:06;;;;;;;15.10;6.25;;;5.70;94.30;;;;;;5091507;28;20040;-65
2021/12/03 08:10:34;;;;;;;15.73;8.52;;;5.70;94.30;;;;;;5085139;28;20043;-65
2021/12/03 08:13:01;;;;;;;14.50;7.70;;;5.80;94.40;;;;;;5085390;28;20391;-66
2021/12/03 08:15:27;;;;;;;10.73;6.78;;;5.80;94.40;;;;;;5086724;28;20028;-65
2021/12/03 08:17:52;;;;;;;12.20;6.53;;;5.80;94.40;;;;;;5083360;28;20032;-65
2021/12/03 08:20:18;;;;;;;10.80;6.03;;;5.90;94.50;;;;;;5083909;28;20043;-65
2021/12/03 08:22:44;;;;;;;12.50;6.97;;;6.00;94.50;;;;;;5082854;28;20029;-65
2021/12/03 08:25:12;;;;;;;11.40;6.03;;;6.00;94.50;;;;;;5079177;28;20046;-65
2021/12/03 08:27:39;;;;;;;15.10;7.78;;;6.00;94.50;;;;;;5086402;28;20032;-66
2021/12/03 08:30:06;;;;;;;14.55;6.93;;;6.10;94.50;;;;;;5083014;28;20032;-65
2021/12/03 08:32:32;;;;;;;8.55;4.88;;;6.20;94.50;;;;;;5090188;28;20040;-64
2021/12/03 08:34:58;;;;;;;7.85;4.55;;;6.20;94.50;;;;;;5088871;28;20030;-65
2021/12/03 08:37:24;;;;;;;11.55;6.15;;;6.20;94.50;;;;;;5082848;28;20044;-66
2021/12/03 08:39:50;;;;;;;11.70;4.40;;;6.20;94.50;;;;;;5085719;28;20081;-66
2021/12/03 08:42:18;;;;;;;11.85;5.53;;;6.30;94.50;;;;;;5090617;28;20020;-66
2021/12/03 08:44:44;;;;;;;7.97;4.75;;;6.30;94.50;;;;;;5073950;28;20506;-66
2021/12/03 08:47:10;;;;;;;12.25;5.10;;;6.40;94.60;;;;;;5092778;28;20059;-66
2021/12/03 08:49:39;;;;;;;10.63;6.18;;;6.40;94.60;;;;;;5086219;28;20024;-65
2021/12/03 08:57:21;;;;;;;9.35;5.25;;;6.50;94.60;;;;;;5080212;28;20097;-66
2021/12/03 08:59:47;;;;;;;14.95;8.23;;;6.50;94.60;;;;;;5089089;28;20028;-66
2021/12/03 09:02:13;;;;;;;7.82;4.95;;;6.50;94.70;;;;;;5088394;28;20561;-66
2021/12/03 09:04:38;;;;;;;10.65;6.13;;;6.60;94.70;;;;;;5087470;28;20119;-66
2021/12/03 09:07:05;;;;;;;12.48;6.90;;;6.60;94.70;;;;;;5089024;28;20036;-67
2021/12/03 09:09:32;;;;;;;11.73;6.28;;;6.60;94.70;;;;;;5090615;28;20032;-66
2021/12/03 09:11:58;;;;;;;12.60;7.13;;;6.70;94.80;;;;;;5086115;28;20054;-66
2021/12/03 09:14:37;;;;;;;9.00;4.70;;;6.70;94.80;;;;;;5089659;28;20101;-67
2021/12/03 09:17:19;;;;;;;7.75;4.60;;;6.80;94.80;;;;;;5077033;28;20040;-65
2021/12/03 09:22:25;;;;;;;8.85;4.28;;;6.80;94.90;;;;;;5089265;28;20441;-66
2021/12/03 09:24:52;;;;;;;12.48;8.02;;;6.90;94.90;;;;;;5085209;28;20028;-65
2021/12/03 09:27:19;;;;;;;9.93;6.25;;;6.90;94.90;;;;;;5086104;28;20047;-66
2021/12/03 09:29:45;;;;;;;13.02;7.03;;;7.00;94.90;;;;;;5086212;28;20034;-66
2021/12/03 09:32:20;;;;;;;11.30;5.80;;;7.00;94.90;;;;;;5092255;28;20048;-66
2021/12/03 09:34:46;;;;;;;7.03;3.88;;;7.10;94.90;;;;;;5090714;28;20461;-66
2021/12/03 09:37:11;;;;;;;7.10;3.80;;;7.20;94.90;;;;;;5082097;28;20028;-66
2021/12/03 09:39:41;;;;;;;6.75;3.95;;;7.30;94.90;;;;;;5086861;28;20048;-66
2021/12/03 09:42:07;;;;;;;9.87;5.23;;;7.30;94.90;;;;;;5086192;28;20031;-65
2021/12/03 09:44:37;;;;;;;9.80;5.35;;;7.40;94.80;;;;;;5081847;28;20024;-66
2021/12/03 09:47:04;;;;;;;7.78;4.30;;;7.40;94.80;;;;;;5080556;28;20016;-66
2021/12/03 09:49:35;;;;;;;9.70;5.22;;;7.40;94.70;;;;;;5084318;28;20035;-66
2021/12/03 09:52:13;;;;;;;12.90;5.75;;;7.40;94.80;;;;;;5084838;28;20429;-66
2021/12/03 09:54:48;;;;;;;9.02;5.38;;;7.50;94.80;;;;;;5091200;28;20123;-65
2021/12/03 09:57:30;;;;;;;8.77;5.15;;;7.50;94.80;;;;;;5086862;28;20031;-65
2021/12/03 10:02:48;;;;;;;10.02;6.10;;;7.50;94.80;;;;;;5073039;28;20104;-66
2021/12/03 10:12:53;;;;;;;6.97;4.03;;;7.70;95.00;;;;;;5086038;28;20066;-65
2021/12/03 10:15:35;;;;;;;6.18;3.67;;;7.70;95.00;;;;;;5094866;28;20016;-65
2021/12/03 10:18:20;;;;;;;7.40;4.03;;;7.80;95.00;;;;;;5098867;28;20024;-66
2021/12/03 10:20:54;;;;;;;7.47;4.40;;;7.90;95.00;;;;;;5084837;28;20024;-66
2021/12/03 10:50:29;;;;;;;4.38;2.72;;;9.10;94.10;;;;;;5088190;28;20031;-66
2021/12/03 10:53:41;;;;;;;5.07;2.70;;;9.20;94.20;;;;;;5075457;28;20403;-65
2021/12/03 11:28:39;;;;;;;5.45;3.13;;;10.00;94.10;;;;;;5048041;28;20191;-65
2021/12/03 11:31:35;;;;;;;4.00;2.63;;;10.00;94.20;;;;;;5047703;28;20029;-65
2021/12/03 11:53:56;;;;;;;4.78;2.55;;;10.40;94.20;;;;;;5086458;28;20036;-65
2021/12/03 13:23:18;;;;;;;7.10;4.75;;;11.70;94.90;;;;;;4969237;28;20035;-66
2021/12/03 13:26:31;;;;;;;7.18;4.50;;;11.70;95.00;;;;;;4968365;28;20457;-66
2021/12/03 13:59:29;;;;;;;5.78;2.53;;;12.40;95.10;;;;;;4979591;28;20086;-66
2021/12/03 14:04:59;;;;;;;5.78;2.78;;;12.50;94.90;;;;;;5004603;28;20533;-66
2021/12/03 14:50:24;;;;;;;5.60;3.15;;;13.00;94.40;;;;;;5083897;28;20059;-64
2021/12/03 14:55:37;;;;;;;6.38;3.83;;;13.00;94.50;;;;;;5086960;28;20089;-64
2021/12/03 14:58:21;;;;;;;5.45;3.53;;;12.90;94.50;;;;;;5087425;28;20113;-64
2021/12/03 15:00:56;;;;;;;7.65;5.30;;;13.00;94.50;;;;;;5083445;28;20119;-64
2021/12/03 15:08:38;;;;;;;6.47;3.88;;;13.00;94.50;;;;;;5087779;28;20039;-64
2021/12/03 15:14:30;;;;;;;7.45;4.22;;;13.00;94.50;;;;;;5079307;28;20024;-64
2021/12/03 16:05:47;;;;;;;15.35;13.73;;;12.70;95.10;;;;;;5046932;28;20135;-63
2021/12/03 16:11:08;;;;;;;7.25;4.72;;;12.60;95.10;;;;;;5072856;28;20610;-64
2021/12/03 16:48:53;;;;;;;6.75;4.05;;;12.50;95.60;;;;;;5047776;28;20033;-63
2021/12/03 16:53:26;;;;;;;5.55;3.08;;;12.50;95.60;;;;;;5047160;28;20029;-62
2021/12/03 16:58:24;;;;;;;4.47;2.38;;;12.50;95.60;;;;;;5043846;28;20628;-64
2021/12/03 17:01:04;;;;;;;8.88;5.90;;;12.50;95.60;;;;;;5045714;28;20541;-64
2021/12/03 17:03:42;;;;;;;8.07;4.30;;;12.50;95.60;;;;;;5038671;28;20049;-64
2021/12/03 17:19:46;;;;;;;15.38;10.32;;;12.30;95.30;;;;;;5061530;28;20025;-65
2021/12/03 17:30:36;;;;;;;7.28;4.85;;;12.30;95.40;;;;;;5026822;28;20479;-65
2021/12/03 17:47:20;;;;;;;6.43;3.03;;;12.20;95.50;;;;;;5025846;28;20068;-64
2021/12/03 17:49:49;;;;;;;9.07;3.10;;;12.20;95.60;;;;;;5025818;28;20120;-64
2021/12/03 18:00:35;;;;;;;8.48;5.97;;;12.20;95.70;;;;;;5020996;28;20051;-64
2021/12/03 18:03:08;;;;;;;8.23;6.28;;;12.30;95.80;;;;;;5079939;28;20073;-64
2021/12/03 18:14:25;;;;;;;11.40;6.05;;;12.30;95.90;;;;;;5088647;28;20578;-63
2021/12/03 18:44:38;;;;;;;20.55;5.20;;;12.40;95.80;;;;;;5092182;28;20559;-64
2021/12/03 18:55:04;;;;;;;19.05;3.20;;;12.50;95.70;;;;;;5082843;28;20039;-64
2021/12/03 18:57:33;;;;;;;13.82;2.92;;;12.50;95.70;;;;;;5085539;28;20036;-64
2021/12/03 19:00:04;;;;;;;16.95;4.82;;;12.50;95.70;;;;;;5084833;28;20040;-64
2021/12/03 19:02:30;;;;;;;;;;;12.50;95.60;;;;;;5085344;28;20408;-64
2021/12/03 19:05:20;;;;;;;16.13;4.53;;;12.60;95.60;;;;;;5084082;28;19908;-64
2021/12/03 19:07:57;;;;;;;17.35;3.72;;;12.60;95.60;;;;;;5080074;28;20055;-65
2021/12/03 19:10:25;;;;;;;13.77;3.10;;;12.60;95.60;;;;;;5080589;28;20032;-64
2021/12/03 19:13:16;;;;;;;13.23;3.20;;;12.60;95.60;;;;;;5080083;28;20421;-64
2021/12/03 19:15:40;;;;;;;10.23;2.40;;;12.60;95.50;;;;;;5083355;28;20140;-64
2021/12/03 19:18:06;;;;;;;11.82;2.20;;;12.60;95.50;;;;;;5090407;28;20453;-64
2021/12/03 19:20:36;;;;;;;11.10;3.45;;;12.60;95.40;;;;;;5083863;28;20031;-63
2021/12/03 19:23:02;;;;;;;12.60;3.00;;;12.70;95.50;;;;;;5091932;28;20494;-63
2021/12/03 19:25:29;;;;;;;11.85;2.67;;;12.70;95.40;;;;;;5077407;28;20317;-64
2021/12/03 19:27:54;;;;;;;12.68;2.60;;;12.70;95.30;;;;;;5084875;28;20024;-64
2021/12/03 19:30:20;;;;;;;11.43;3.55;;;12.70;95.30;;;;;;5083829;28;20039;-64
2021/12/03 19:32:46;;;;;;;19.10;11.15;;;12.70;95.30;;;;;;5089490;28;20034;-64
2021/12/03 19:35:12;;;;;;;8.65;2.20;;;12.70;95.20;;;;;;5090471;28;20077;-64
2021/12/03 19:37:38;;;;;;;9.27;2.80;;;12.70;95.20;;;;;;5082845;28;20093;-63
2021/12/03 19:40:08;;;;;;;7.88;2.83;;;12.70;95.20;;;;;;5077855;28;20028;-63
2021/12/03 19:42:46;;;;;;;9.63;2.07;;;12.70;95.20;;;;;;5082916;28;20526;-63
2021/12/03 19:45:17;;;;;;;6.82;2.00;;;12.70;95.10;;;;;;5089094;28;20040;-63
2021/12/03 19:48:01;;;;;;;10.10;2.10;;;12.70;95.00;;;;;;5083237;28;20559;-63
2021/12/03 19:53:15;;;;;;;9.30;1.70;;;12.80;95.30;;;;;;5087675;28;20502;-63
2021/12/03 19:55:44;;;;;;;12.15;1.88;;;12.80;94.70;;;;;;5087360;28;20044;-63
2021/12/03 19:58:12;;;;;;;9.65;2.13;;;12.80;94.80;;;;;;5086972;28;20089;-63
2021/12/03 20:00:40;;;;;;;7.97;1.85;;;12.80;94.70;;;;;;5087897;28;20020;-64
2021/12/03 20:03:08;;;;;;;13.25;2.38;;;12.80;94.70;;;;;;5081249;28;20032;-64
2021/12/03 20:05:36;;;;;;;12.77;2.20;;;12.80;94.70;;;;;;5100456;27;20522;-64
2021/12/03 20:08:13;;;;;;;11.57;2.58;;;12.80;94.70;;;;;;5085027;28;20058;-64
2021/12/03 20:10:40;;;;;;;7.18;1.55;;;12.70;94.70;;;;;;5089607;28;20040;-64
2021/12/03 20:13:11;;;;;;;10.68;1.73;;;12.70;94.70;;;;;;5084599;28;21364;-63
2021/12/03 20:18:12;;;;;;;13.60;1.80;;;12.70;94.70;;;;;;5087656;28;20058;-64
2021/12/03 20:20:40;;;;;;;14.13;3.75;;;12.70;94.70;;;;;;5083330;28;20032;-64
2021/12/03 20:23:31;;;;;;;11.98;1.80;;;12.60;94.80;;;;;;5086112;28;20048;-64
2021/12/03 20:28:53;;;;;;;8.32;1.92;;;12.60;94.80;;;;;;5088600;28;20038;-64
2021/12/03 20:31:23;;;;;;;11.48;2.10;;;12.60;94.90;;;;;;5084728;28;20028;-64